sensor_id;sensor_type;location;lat;lon;timestamp;temperature;humidity
33739;DHT22;20063;51.730;11.110;2023-06-05T00:02:11;11.50;99.90
33739;DHT22;20063;51.730;11.110;2023-06-05T00:04:36;11.40;99.90
33739;DHT22;20063;51.730;11.110;2023-06-05T00:07:02;11.40;99.90
33739;DHT22;20063;51.730;11.110;2023-06-05T00:09:28;11.40;99.90
33739;DHT22;20063;51.730;11.110;2023-06-05T00:11:53;11.40;99.90
33739;DHT22;20063;51.730;11.110;2023-06-05T00:14:22;11.40;99.90
33739;DHT22;20063;51.730;11.110;2023-06-05T00:16:48;11.30;99.90
33739;DHT22;20063;51.730;11.110;2023-06-05T00:19:15;11.30;99.90
33739;DHT22;20063;51.730;11.110;2023-06-05T00:21:41;11.20;99.90
33739;DHT22;20063;51.730;11.110;2023-06-05T00:24:06;11.20;99.90
33739;DHT22;20063;51.730;11.110;2023-06-05T00:26:32;11.20;99.90
33739;DHT22;20063;51.730;11.110;2023-06-05T00:28:57;11.20;99.90
33739;DHT22;20063;51.730;11.110;2023-06-05T00:31:23;11.10;99.90
33739;DHT22;20063;51.730;11.110;2023-06-05T00:33:49;11.10;99.90
33739;DHT22;20063;51.730;11.110;2023-06-05T00:36:16;11.10;99.90
33739;DHT22;20063;51.730;11.110;2023-06-05T00:38:43;11.10;99.90
33739;DHT22;20063;51.730;11.110;2023-06-05T00:41:08;11.10;99.90
33739;DHT22;20063;51.730;11.110;2023-06-05T00:43:34;11.10;99.90
33739;DHT22;20063;51.730;11.110;2023-06-05T00:46:02;11.10;99.90
33739;DHT22;20063;51.730;11.110;2023-06-05T00:48:29;11.10;99.90
33739;DHT22;20063;51.730;11.110;2023-06-05T00:50:57;11.00;99.90
33739;DHT22;20063;51.730;11.110;2023-06-05T00:53:24;11.00;99.90
33739;DHT22;20063;51.730;11.110;2023-06-05T00:55:50;11.00;99.90
33739;DHT22;20063;51.730;11.110;2023-06-05T00:58:17;10.90;99.90
33739;DHT22;20063;51.730;11.110;2023-06-05T01:00:43;10.90;99.90
33739;DHT22;20063;51.730;11.110;2023-06-05T01:03:12;10.90;99.90
33739;DHT22;20063;51.730;11.110;2023-06-05T01:05:38;10.90;99.90
33739;DHT22;20063;51.730;11.110;2023-06-05T01:08:04;10.90;99.90
33739;DHT22;20063;51.730;11.110;2023-06-05T01:10:31;10.90;99.90
33739;DHT22;20063;51.730;11.110;2023-06-05T01:15:28;10.90;99.90
33739;DHT22;20063;51.730;11.110;2023-06-05T01:17:56;10.80;99.90
33739;DHT22;20063;51.730;11.110;2023-06-05T01:20:22;10.80;99.90
33739;DHT22;20063;51.730;11.110;2023-06-05T01:22:49;10.70;99.90
33739;DHT22;20063;51.730;11.110;2023-06-05T01:25:17;10.70;99.90
33739;DHT22;20063;51.730;11.110;2023-06-05T01:27:58;10.70;99.90
33739;DHT22;20063;51.730;11.110;2023-06-05T01:30:46;10.60;99.90
33739;DHT22;20063;51.730;11.110;2023-06-05T01:33:26;10.60;99.90
33739;DHT22;20063;51.730;11.110;2023-06-05T01:35:53;10.50;99.90
33739;DHT22;20063;51.730;11.110;2023-06-05T01:38:21;10.50;99.90
33739;DHT22;20063;51.730;11.110;2023-06-05T01:40:49;10.50;99.90
33739;DHT22;20063;51.730;11.110;2023-06-05T01:43:16;10.40;99.90
33739;DHT22;20063;51.730;11.110;2023-06-05T01:45:42;10.40;99.90
33739;DHT22;20063;51.730;11.110;2023-06-05T01:48:10;10.40;99.90
33739;DHT22;20063;51.730;11.110;2023-06-05T01:50:39;10.40;99.90
33739;DHT22;20063;51.730;11.110;2023-06-05T01:53:07;10.40;99.90
33739;DHT22;20063;51.730;11.110;2023-06-05T01:55:33;10.40;99.90
33739;DHT22;20063;51.730;11.110;2023-06-05T01:57:59;10.40;99.90
33739;DHT22;20063;51.730;11.110;2023-06-05T02:00:28;10.30;99.90
33739;DHT22;20063;51.730;11.110;2023-06-05T02:02:55;10.30;99.90
33739;DHT22;20063;51.730;11.110;2023-06-05T02:05:22;10.20;99.90
33739;DHT22;20063;51.730;11.110;2023-06-05T02:07:49;10.20;99.90
33739;DHT22;20063;51.730;11.110;2023-06-05T02:10:20;10.20;99.90
33739;DHT22;20063;51.730;11.110;2023-06-05T02:12:46;10.20;99.90
33739;DHT22;20063;51.730;11.110;2023-06-05T02:15:12;10.20;99.90
33739;DHT22;20063;51.730;11.110;2023-06-05T02:17:45;10.10;99.90
33739;DHT22;20063;51.730;11.110;2023-06-05T02:20:14;10.20;99.90
33739;DHT22;20063;51.730;11.110;2023-06-05T02:22:41;10.20;99.90
33739;DHT22;20063;51.730;11.110;2023-06-05T02:25:07;10.20;99.90
33739;DHT22;20063;51.730;11.110;2023-06-05T02:27:32;10.20;99.90
33739;DHT22;20063;51.730;11.110;2023-06-05T02:29:58;10.20;99.90
33739;DHT22;20063;51.730;11.110;2023-06-05T02:32:25;10.20;99.90
33739;DHT22;20063;51.730;11.110;2023-06-05T02:34:55;10.20;99.90
33739;DHT22;20063;51.730;11.110;2023-06-05T02:37:23;10.20;99.90
33739;DHT22;20063;51.730;11.110;2023-06-05T02:39:49;10.10;99.90
33739;DHT22;20063;51.730;11.110;2023-06-05T02:42:15;10.10;99.90
33739;DHT22;20063;51.730;11.110;2023-06-05T02:44:42;10.10;99.90
33739;DHT22;20063;51.730;11.110;2023-06-05T02:47:07;10.10;99.90
33739;DHT22;20063;51.730;11.110;2023-06-05T02:49:33;10.10;99.90
33739;DHT22;20063;51.730;11.110;2023-06-05T02:51:58;10.20;99.90
33739;DHT22;20063;51.730;11.110;2023-06-05T02:54:25;10.10;99.90
33739;DHT22;20063;51.730;11.110;2023-06-05T02:56:52;10.10;99.90
33739;DHT22;20063;51.730;11.110;2023-06-05T02:59:18;10.00;99.90
33739;DHT22;20063;51.730;11.110;2023-06-05T03:01:45;10.00;99.90
33739;DHT22;20063;51.730;11.110;2023-06-05T03:04:12;10.00;99.90
33739;DHT22;20063;51.730;11.110;2023-06-05T03:06:40;10.00;99.90
33739;DHT22;20063;51.730;11.110;2023-06-05T03:09:08;10.00;99.90
33739;DHT22;20063;51.730;11.110;2023-06-05T03:11:34;9.90;99.90
33739;DHT22;20063;51.730;11.110;2023-06-05T03:14:00;9.90;99.90
33739;DHT22;20063;51.730;11.110;2023-06-05T03:16:25;9.90;99.90
33739;DHT22;20063;51.730;11.110;2023-06-05T03:18:58;9.80;99.90
33739;DHT22;20063;51.730;11.110;2023-06-05T03:21:23;9.80;99.90
33739;DHT22;20063;51.730;11.110;2023-06-05T03:23:49;9.80;99.90
33739;DHT22;20063;51.730;11.110;2023-06-05T03:26:14;9.80;99.90
33739;DHT22;20063;51.730;11.110;2023-06-05T03:28:40;9.70;99.90
33739;DHT22;20063;51.730;11.110;2023-06-05T03:31:06;9.70;99.90
33739;DHT22;20063;51.730;11.110;2023-06-05T03:33:35;9.70;99.90
33739;DHT22;20063;51.730;11.110;2023-06-05T03:36:01;9.70;99.90
33739;DHT22;20063;51.730;11.110;2023-06-05T03:38:27;9.70;99.90
33739;DHT22;20063;51.730;11.110;2023-06-05T03:40:53;9.70;99.90
33739;DHT22;20063;51.730;11.110;2023-06-05T03:43:19;9.70;99.90
33739;DHT22;20063;51.730;11.110;2023-06-05T03:45:45;9.70;99.90
33739;DHT22;20063;51.730;11.110;2023-06-05T03:48:12;9.70;99.90
33739;DHT22;20063;51.730;11.110;2023-06-05T03:50:38;9.60;99.90
33739;DHT22;20063;51.730;11.110;2023-06-05T03:53:04;9.60;99.90
33739;DHT22;20063;51.730;11.110;2023-06-05T03:55:31;9.70;99.90
33739;DHT22;20063;51.730;11.110;2023-06-05T03:58:08;9.60;99.90
33739;DHT22;20063;51.730;11.110;2023-06-05T04:00:34;9.70;99.90
33739;DHT22;20063;51.730;11.110;2023-06-05T04:03:00;9.70;99.90
33739;DHT22;20063;51.730;11.110;2023-06-05T04:05:26;9.70;99.90
33739;DHT22;20063;51.730;11.110;2023-06-05T04:07:51;9.80;99.90
33739;DHT22;20063;51.730;11.110;2023-06-05T04:10:17;9.90;99.90
33739;DHT22;20063;51.730;11.110;2023-06-05T04:12:42;9.90;99.90
33739;DHT22;20063;51.730;11.110;2023-06-05T04:15:08;10.00;99.90
33739;DHT22;20063;51.730;11.110;2023-06-05T04:17:34;10.00;99.90
33739;DHT22;20063;51.730;11.110;2023-06-05T04:20:02;10.10;99.90
33739;DHT22;20063;51.730;11.110;2023-06-05T04:22:28;10.10;99.90
33739;DHT22;20063;51.730;11.110;2023-06-05T04:24:54;10.20;99.90
33739;DHT22;20063;51.730;11.110;2023-06-05T04:27:20;10.20;99.90
33739;DHT22;20063;51.730;11.110;2023-06-05T04:29:45;10.20;99.90
33739;DHT22;20063;51.730;11.110;2023-06-05T04:32:14;10.30;99.90
33739;DHT22;20063;51.730;11.110;2023-06-05T04:34:41;10.30;99.90
33739;DHT22;20063;51.730;11.110;2023-06-05T04:37:07;10.40;99.90
33739;DHT22;20063;51.730;11.110;2023-06-05T04:39:32;10.50;99.90
33739;DHT22;20063;51.730;11.110;2023-06-05T04:41:58;10.50;99.90
33739;DHT22;20063;51.730;11.110;2023-06-05T04:44:24;10.60;99.90
33739;DHT22;20063;51.730;11.110;2023-06-05T04:46:52;10.70;99.90
33739;DHT22;20063;51.730;11.110;2023-06-05T04:49:18;10.80;99.90
33739;DHT22;20063;51.730;11.110;2023-06-05T04:51:43;10.80;99.90
33739;DHT22;20063;51.730;11.110;2023-06-05T04:54:10;10.90;99.90
33739;DHT22;20063;51.730;11.110;2023-06-05T04:56:36;11.00;99.90
33739;DHT22;20063;51.730;11.110;2023-06-05T04:59:03;11.10;99.90
33739;DHT22;20063;51.730;11.110;2023-06-05T05:01:29;11.20;99.90
33739;DHT22;20063;51.730;11.110;2023-06-05T05:03:55;11.20;99.90
33739;DHT22;20063;51.730;11.110;2023-06-05T05:06:21;11.30;99.90
33739;DHT22;20063;51.730;11.110;2023-06-05T05:08:47;11.40;99.90
33739;DHT22;20063;51.730;11.110;2023-06-05T05:11:16;11.50;99.90
33739;DHT22;20063;51.730;11.110;2023-06-05T05:13:42;11.60;99.90
33739;DHT22;20063;51.730;11.110;2023-06-05T05:16:08;11.60;99.90
33739;DHT22;20063;51.730;11.110;2023-06-05T05:18:35;11.70;99.90
33739;DHT22;20063;51.730;11.110;2023-06-05T05:21:02;11.80;99.90
33739;DHT22;20063;51.730;11.110;2023-06-05T05:23:28;11.90;99.90
33739;DHT22;20063;51.730;11.110;2023-06-05T05:25:53;12.00;99.90
33739;DHT22;20063;51.730;11.110;2023-06-05T05:28:19;12.10;99.90
33739;DHT22;20063;51.730;11.110;2023-06-05T05:30:45;12.20;99.90
33739;DHT22;20063;51.730;11.110;2023-06-05T05:33:10;12.30;99.90
33739;DHT22;20063;51.730;11.110;2023-06-05T05:35:36;12.40;99.90
33739;DHT22;20063;51.730;11.110;2023-06-05T05:38:01;12.50;99.90
33739;DHT22;20063;51.730;11.110;2023-06-05T05:40:27;12.60;99.90
33739;DHT22;20063;51.730;11.110;2023-06-05T05:42:52;12.70;99.90
33739;DHT22;20063;51.730;11.110;2023-06-05T05:45:18;12.80;99.90
33739;DHT22;20063;51.730;11.110;2023-06-05T05:47:43;12.80;99.90
33739;DHT22;20063;51.730;11.110;2023-06-05T05:50:09;12.90;99.90
33739;DHT22;20063;51.730;11.110;2023-06-05T05:52:35;13.00;99.90
33739;DHT22;20063;51.730;11.110;2023-06-05T05:55:00;13.20;99.90
33739;DHT22;20063;51.730;11.110;2023-06-05T05:57:28;13.20;99.90
33739;DHT22;20063;51.730;11.110;2023-06-05T05:59:54;13.30;99.90
33739;DHT22;20063;51.730;11.110;2023-06-05T06:02:20;13.40;99.90
33739;DHT22;20063;51.730;11.110;2023-06-05T06:04:46;13.40;99.90
33739;DHT22;20063;51.730;11.110;2023-06-05T06:07:12;13.50;99.90
33739;DHT22;20063;51.730;11.110;2023-06-05T06:09:38;13.50;99.90
33739;DHT22;20063;51.730;11.110;2023-06-05T06:12:04;13.60;99.90
33739;DHT22;20063;51.730;11.110;2023-06-05T06:14:31;13.70;99.90
33739;DHT22;20063;51.730;11.110;2023-06-05T06:16:57;13.70;99.90
33739;DHT22;20063;51.730;11.110;2023-06-05T06:19:23;13.80;99.90
33739;DHT22;20063;51.730;11.110;2023-06-05T06:21:52;14.00;99.90
33739;DHT22;20063;51.730;11.110;2023-06-05T06:24:18;14.00;99.90
33739;DHT22;20063;51.730;11.110;2023-06-05T06:26:48;14.10;99.90
33739;DHT22;20063;51.730;11.110;2023-06-05T06:29:17;14.10;99.90
33739;DHT22;20063;51.730;11.110;2023-06-05T06:31:43;14.10;99.90
33739;DHT22;20063;51.730;11.110;2023-06-05T06:34:09;14.20;99.90
33739;DHT22;20063;51.730;11.110;2023-06-05T06:36:36;14.20;99.90
33739;DHT22;20063;51.730;11.110;2023-06-05T06:39:06;14.30;99.90
33739;DHT22;20063;51.730;11.110;2023-06-05T06:41:33;14.40;99.90
33739;DHT22;20063;51.730;11.110;2023-06-05T06:44:01;14.40;99.90
33739;DHT22;20063;51.730;11.110;2023-06-05T06:46:27;14.50;99.90
33739;DHT22;20063;51.730;11.110;2023-06-05T06:48:52;14.60;99.90
33739;DHT22;20063;51.730;11.110;2023-06-05T06:51:18;14.70;99.90
33739;DHT22;20063;51.730;11.110;2023-06-05T06:53:44;14.80;99.90
33739;DHT22;20063;51.730;11.110;2023-06-05T06:56:12;14.90;99.90
33739;DHT22;20063;51.730;11.110;2023-06-05T06:58:40;14.90;99.90
33739;DHT22;20063;51.730;11.110;2023-06-05T07:01:06;15.00;99.90
33739;DHT22;20063;51.730;11.110;2023-06-05T07:03:31;15.00;99.90
33739;DHT22;20063;51.730;11.110;2023-06-05T07:05:57;15.10;99.90
33739;DHT22;20063;51.730;11.110;2023-06-05T07:08:23;15.20;99.90
33739;DHT22;20063;51.730;11.110;2023-06-05T07:10:49;15.30;99.90
33739;DHT22;20063;51.730;11.110;2023-06-05T07:13:15;15.30;99.90
33739;DHT22;20063;51.730;11.110;2023-06-05T07:15:40;15.40;97.50
33739;DHT22;20063;51.730;11.110;2023-06-05T07:18:06;15.50;99.90
33739;DHT22;20063;51.730;11.110;2023-06-05T07:20:32;15.50;99.90
33739;DHT22;20063;51.730;11.110;2023-06-05T07:22:57;15.50;99.90
33739;DHT22;20063;51.730;11.110;2023-06-05T07:25:27;15.50;99.90
33739;DHT22;20063;51.730;11.110;2023-06-05T07:27:53;15.60;99.90
33739;DHT22;20063;51.730;11.110;2023-06-05T07:30:19;15.60;99.90
33739;DHT22;20063;51.730;11.110;2023-06-05T07:32:45;15.60;99.90
33739;DHT22;20063;51.730;11.110;2023-06-05T07:35:11;15.70;99.90
33739;DHT22;20063;51.730;11.110;2023-06-05T07:37:38;15.80;99.90
33739;DHT22;20063;51.730;11.110;2023-06-05T07:40:04;15.90;99.90
33739;DHT22;20063;51.730;11.110;2023-06-05T07:42:31;15.90;99.90
33739;DHT22;20063;51.730;11.110;2023-06-05T07:44:57;16.00;99.90
33739;DHT22;20063;51.730;11.110;2023-06-05T07:47:22;16.10;99.90
33739;DHT22;20063;51.730;11.110;2023-06-05T07:50:01;16.10;99.90
33739;DHT22;20063;51.730;11.110;2023-06-05T07:52:30;16.20;99.90
33739;DHT22;20063;51.730;11.110;2023-06-05T07:54:56;16.20;99.90
33739;DHT22;20063;51.730;11.110;2023-06-05T07:57:22;16.30;99.90
33739;DHT22;20063;51.730;11.110;2023-06-05T07:59:50;16.40;99.90
33739;DHT22;20063;51.730;11.110;2023-06-05T08:02:17;16.40;99.90
33739;DHT22;20063;51.730;11.110;2023-06-05T08:04:43;16.40;99.90
33739;DHT22;20063;51.730;11.110;2023-06-05T08:07:11;16.50;99.90
33739;DHT22;20063;51.730;11.110;2023-06-05T08:09:36;16.60;99.90
33739;DHT22;20063;51.730;11.110;2023-06-05T08:12:03;16.60;99.90
33739;DHT22;20063;51.730;11.110;2023-06-05T08:14:29;16.70;99.90
33739;DHT22;20063;51.730;11.110;2023-06-05T08:16:58;16.80;99.90
33739;DHT22;20063;51.730;11.110;2023-06-05T08:19:23;17.00;99.90
33739;DHT22;20063;51.730;11.110;2023-06-05T08:21:53;17.00;99.90
33739;DHT22;20063;51.730;11.110;2023-06-05T08:24:25;17.10;99.90
33739;DHT22;20063;51.730;11.110;2023-06-05T08:26:52;17.10;99.90
33739;DHT22;20063;51.730;11.110;2023-06-05T08:29:18;17.20;99.90
33739;DHT22;20063;51.730;11.110;2023-06-05T08:31:43;17.20;99.90
33739;DHT22;20063;51.730;11.110;2023-06-05T08:34:09;17.30;99.90
33739;DHT22;20063;51.730;11.110;2023-06-05T08:36:36;17.40;99.90
33739;DHT22;20063;51.730;11.110;2023-06-05T08:39:02;17.50;99.90
33739;DHT22;20063;51.730;11.110;2023-06-05T08:41:29;17.50;99.90
33739;DHT22;20063;51.730;11.110;2023-06-05T08:43:56;17.60;99.90
33739;DHT22;20063;51.730;11.110;2023-06-05T08:46:22;17.70;99.90
33739;DHT22;20063;51.730;11.110;2023-06-05T08:48:53;17.70;99.90
33739;DHT22;20063;51.730;11.110;2023-06-05T08:51:24;17.70;99.90
33739;DHT22;20063;51.730;11.110;2023-06-05T08:53:57;17.80;99.90
33739;DHT22;20063;51.730;11.110;2023-06-05T08:56:28;17.90;99.90
33739;DHT22;20063;51.730;11.110;2023-06-05T08:58:57;18.00;97.90
33739;DHT22;20063;51.730;11.110;2023-06-05T09:01:23;18.10;97.20
33739;DHT22;20063;51.730;11.110;2023-06-05T09:03:49;18.20;95.80
33739;DHT22;20063;51.730;11.110;2023-06-05T09:06:16;18.20;93.90
33739;DHT22;20063;51.730;11.110;2023-06-05T09:08:41;18.30;95.70
33739;DHT22;20063;51.730;11.110;2023-06-05T09:11:28;18.40;95.20
33739;DHT22;20063;51.730;11.110;2023-06-05T09:13:56;18.40;97.90
33739;DHT22;20063;51.730;11.110;2023-06-05T09:16:31;18.60;97.60
33739;DHT22;20063;51.730;11.110;2023-06-05T09:18:58;18.60;95.40
33739;DHT22;20063;51.730;11.110;2023-06-05T09:21:25;18.60;95.40
33739;DHT22;20063;51.730;11.110;2023-06-05T09:29:12;18.80;95.90
33739;DHT22;20063;51.730;11.110;2023-06-05T09:31:41;18.90;96.80
33739;DHT22;20063;51.730;11.110;2023-06-05T09:34:30;18.90;95.40
33739;DHT22;20063;51.730;11.110;2023-06-05T09:36:57;19.00;87.20
33739;DHT22;20063;51.730;11.110;2023-06-05T09:39:24;19.10;83.30
33739;DHT22;20063;51.730;11.110;2023-06-05T09:41:54;19.10;88.70
33739;DHT22;20063;51.730;11.110;2023-06-05T09:44:20;19.20;90.20
33739;DHT22;20063;51.730;11.110;2023-06-05T09:49:19;19.30;85.00
33739;DHT22;20063;51.730;11.110;2023-06-05T09:51:45;19.30;81.50
33739;DHT22;20063;51.730;11.110;2023-06-05T09:54:12;19.40;84.10
33739;DHT22;20063;51.730;11.110;2023-06-05T09:56:39;19.50;80.20
33739;DHT22;20063;51.730;11.110;2023-06-05T09:59:08;19.50;81.60
33739;DHT22;20063;51.730;11.110;2023-06-05T10:01:36;19.50;84.20
33739;DHT22;20063;51.730;11.110;2023-06-05T10:04:11;19.60;80.70
33739;DHT22;20063;51.730;11.110;2023-06-05T10:06:39;19.70;77.90
33739;DHT22;20063;51.730;11.110;2023-06-05T10:09:07;19.70;78.70
33739;DHT22;20063;51.730;11.110;2023-06-05T10:11:32;19.80;79.00
33739;DHT22;20063;51.730;11.110;2023-06-05T10:13:59;19.90;69.40
33739;DHT22;20063;51.730;11.110;2023-06-05T10:16:28;19.90;64.60
33739;DHT22;20063;51.730;11.110;2023-06-05T10:18:56;20.00;64.50
33739;DHT22;20063;51.730;11.110;2023-06-05T10:21:25;20.10;65.70
33739;DHT22;20063;51.730;11.110;2023-06-05T10:23:56;20.10;63.60
33739;DHT22;20063;51.730;11.110;2023-06-05T10:29:11;20.20;62.00
33739;DHT22;20063;51.730;11.110;2023-06-05T10:32:07;20.20;64.20
33739;DHT22;20063;51.730;11.110;2023-06-05T10:34:48;20.30;59.40
33739;DHT22;20063;51.730;11.110;2023-06-05T10:37:36;20.40;55.00
33739;DHT22;20063;51.730;11.110;2023-06-05T10:40:10;20.60;53.90
33739;DHT22;20063;51.730;11.110;2023-06-05T10:42:36;20.60;55.60
33739;DHT22;20063;51.730;11.110;2023-06-05T10:45:02;20.70;54.60
33739;DHT22;20063;51.730;11.110;2023-06-05T10:52:48;20.80;49.50
33739;DHT22;20063;51.730;11.110;2023-06-05T10:55:16;20.70;49.50
33739;DHT22;20063;51.730;11.110;2023-06-05T11:00:26;20.70;52.50
33739;DHT22;20063;51.730;11.110;2023-06-05T11:02:52;20.70;52.90
33739;DHT22;20063;51.730;11.110;2023-06-05T11:05:18;20.80;52.20
33739;DHT22;20063;51.730;11.110;2023-06-05T11:07:45;20.80;51.20
33739;DHT22;20063;51.730;11.110;2023-06-05T11:10:18;20.90;50.40
33739;DHT22;20063;51.730;11.110;2023-06-05T11:15:16;20.90;50.60
33739;DHT22;20063;51.730;11.110;2023-06-05T11:17:50;21.00;50.90
33739;DHT22;20063;51.730;11.110;2023-06-05T11:27:51;21.30;52.30
33739;DHT22;20063;51.730;11.110;2023-06-05T11:30:19;21.40;49.50
33739;DHT22;20063;51.730;11.110;2023-06-05T11:32:45;21.40;49.10
33739;DHT22;20063;51.730;11.110;2023-06-05T11:35:11;21.40;48.90
33739;DHT22;20063;51.730;11.110;2023-06-05T11:37:38;21.30;48.30
33739;DHT22;20063;51.730;11.110;2023-06-05T11:40:07;21.30;48.70
33739;DHT22;20063;51.730;11.110;2023-06-05T11:42:39;21.30;47.60
33739;DHT22;20063;51.730;11.110;2023-06-05T11:45:11;21.30;47.90
33739;DHT22;20063;51.730;11.110;2023-06-05T11:47:37;21.30;47.50
33739;DHT22;20063;51.730;11.110;2023-06-05T11:50:10;21.40;47.00
33739;DHT22;20063;51.730;11.110;2023-06-05T11:52:37;21.40;46.90
33739;DHT22;20063;51.730;11.110;2023-06-05T11:55:15;21.40;48.50
33739;DHT22;20063;51.730;11.110;2023-06-05T11:57:45;21.40;49.60
33739;DHT22;20063;51.730;11.110;2023-06-05T12:00:13;21.50;50.00
33739;DHT22;20063;51.730;11.110;2023-06-05T12:02:41;21.60;49.20
33739;DHT22;20063;51.730;11.110;2023-06-05T12:05:07;21.60;48.80
33739;DHT22;20063;51.730;11.110;2023-06-05T12:07:36;21.60;48.20
33739;DHT22;20063;51.730;11.110;2023-06-05T12:10:03;21.70;48.20
33739;DHT22;20063;51.730;11.110;2023-06-05T12:12:29;21.70;48.20
33739;DHT22;20063;51.730;11.110;2023-06-05T12:14:55;21.80;45.80
33739;DHT22;20063;51.730;11.110;2023-06-05T12:17:21;21.80;45.40
33739;DHT22;20063;51.730;11.110;2023-06-05T12:19:53;21.70;46.70
33739;DHT22;20063;51.730;11.110;2023-06-05T12:22:19;21.70;48.20
33739;DHT22;20063;51.730;11.110;2023-06-05T12:24:45;21.80;47.20
33739;DHT22;20063;51.730;11.110;2023-06-05T12:27:11;21.90;45.80
33739;DHT22;20063;51.730;11.110;2023-06-05T12:29:38;22.00;46.40
33739;DHT22;20063;51.730;11.110;2023-06-05T12:32:22;22.00;46.50
33739;DHT22;20063;51.730;11.110;2023-06-05T12:34:48;22.00;45.70
33739;DHT22;20063;51.730;11.110;2023-06-05T12:37:33;22.10;45.80
33739;DHT22;20063;51.730;11.110;2023-06-05T12:40:03;22.10;44.70
33739;DHT22;20063;51.730;11.110;2023-06-05T12:42:37;22.10;43.40
33739;DHT22;20063;51.730;11.110;2023-06-05T12:45:03;22.10;43.60
33739;DHT22;20063;51.730;11.110;2023-06-05T12:47:29;22.10;43.70
33739;DHT22;20063;51.730;11.110;2023-06-05T12:49:55;22.10;44.20
33739;DHT22;20063;51.730;11.110;2023-06-05T12:52:22;22.20;44.90
33739;DHT22;20063;51.730;11.110;2023-06-05T12:54:55;22.30;44.00
33739;DHT22;20063;51.730;11.110;2023-06-05T12:57:22;22.30;42.70
33739;DHT22;20063;51.730;11.110;2023-06-05T12:59:47;22.30;43.00
33739;DHT22;20063;51.730;11.110;2023-06-05T13:02:13;22.40;43.40
33739;DHT22;20063;51.730;11.110;2023-06-05T13:04:39;22.40;43.20
33739;DHT22;20063;51.730;11.110;2023-06-05T13:07:08;22.40;42.20
33739;DHT22;20063;51.730;11.110;2023-06-05T13:09:34;22.30;41.00
33739;DHT22;20063;51.730;11.110;2023-06-05T13:12:01;22.30;42.60
33739;DHT22;20063;51.730;11.110;2023-06-05T13:14:32;22.30;42.30
33739;DHT22;20063;51.730;11.110;2023-06-05T13:16:58;22.40;42.00
33739;DHT22;20063;51.730;11.110;2023-06-05T13:19:23;22.40;41.20
33739;DHT22;20063;51.730;11.110;2023-06-05T13:21:50;22.50;42.10
33739;DHT22;20063;51.730;11.110;2023-06-05T13:24:16;22.50;42.70
33739;DHT22;20063;51.730;11.110;2023-06-05T13:26:43;22.50;42.70
33739;DHT22;20063;51.730;11.110;2023-06-05T13:29:09;22.60;43.60
33739;DHT22;20063;51.730;11.110;2023-06-05T13:31:35;22.60;42.30
33739;DHT22;20063;51.730;11.110;2023-06-05T13:34:01;22.70;42.00
33739;DHT22;20063;51.730;11.110;2023-06-05T13:36:27;22.70;40.90
33739;DHT22;20063;51.730;11.110;2023-06-05T13:38:52;22.70;41.00
33739;DHT22;20063;51.730;11.110;2023-06-05T13:41:18;22.70;41.60
33739;DHT22;20063;51.730;11.110;2023-06-05T13:43:44;22.70;40.30
33739;DHT22;20063;51.730;11.110;2023-06-05T13:46:09;22.70;41.30
33739;DHT22;20063;51.730;11.110;2023-06-05T13:48:36;22.70;40.70
33739;DHT22;20063;51.730;11.110;2023-06-05T13:51:03;22.80;41.20
33739;DHT22;20063;51.730;11.110;2023-06-05T13:53:29;22.80;41.00
33739;DHT22;20063;51.730;11.110;2023-06-05T13:56:03;22.80;41.20
33739;DHT22;20063;51.730;11.110;2023-06-05T13:58:28;22.90;41.20
33739;DHT22;20063;51.730;11.110;2023-06-05T14:00:54;22.90;41.70
33739;DHT22;20063;51.730;11.110;2023-06-05T14:03:20;23.00;41.80
33739;DHT22;20063;51.730;11.110;2023-06-05T14:05:46;23.00;41.40
33739;DHT22;20063;51.730;11.110;2023-06-05T14:08:11;23.10;40.80
33739;DHT22;20063;51.730;11.110;2023-06-05T14:10:37;23.00;39.30
33739;DHT22;20063;51.730;11.110;2023-06-05T14:13:03;22.90;40.00
33739;DHT22;20063;51.730;11.110;2023-06-05T14:15:31;22.80;41.70
33739;DHT22;20063;51.730;11.110;2023-06-05T14:17:57;22.80;41.10
33739;DHT22;20063;51.730;11.110;2023-06-05T14:20:23;22.80;40.90
33739;DHT22;20063;51.730;11.110;2023-06-05T14:22:49;22.70;40.80
33739;DHT22;20063;51.730;11.110;2023-06-05T14:25:14;22.70;42.40
33739;DHT22;20063;51.730;11.110;2023-06-05T14:27:40;22.70;41.30
33739;DHT22;20063;51.730;11.110;2023-06-05T14:30:06;22.70;42.00
33739;DHT22;20063;51.730;11.110;2023-06-05T14:32:34;22.80;41.60
33739;DHT22;20063;51.730;11.110;2023-06-05T14:34:59;22.80;41.60
33739;DHT22;20063;51.730;11.110;2023-06-05T14:37:25;22.90;41.30
33739;DHT22;20063;51.730;11.110;2023-06-05T14:39:51;22.90;40.40
33739;DHT22;20063;51.730;11.110;2023-06-05T14:42:16;22.90;41.00
33739;DHT22;20063;51.730;11.110;2023-06-05T14:44:42;22.90;40.20
33739;DHT22;20063;51.730;11.110;2023-06-05T14:47:07;22.90;39.20
33739;DHT22;20063;51.730;11.110;2023-06-05T14:49:33;23.00;38.70
33739;DHT22;20063;51.730;11.110;2023-06-05T14:51:58;23.00;39.00
33739;DHT22;20063;51.730;11.110;2023-06-05T14:54:24;23.00;38.30
33739;DHT22;20063;51.730;11.110;2023-06-05T14:56:50;23.00;39.50
33739;DHT22;20063;51.730;11.110;2023-06-05T14:59:16;22.90;39.30
33739;DHT22;20063;51.730;11.110;2023-06-05T15:01:41;22.90;39.30
33739;DHT22;20063;51.730;11.110;2023-06-05T15:04:07;22.90;39.60
33739;DHT22;20063;51.730;11.110;2023-06-05T15:06:32;22.90;39.90
33739;DHT22;20063;51.730;11.110;2023-06-05T15:08:58;22.90;39.40
33739;DHT22;20063;51.730;11.110;2023-06-05T15:11:23;22.80;39.30
33739;DHT22;20063;51.730;11.110;2023-06-05T15:13:49;22.90;39.50
33739;DHT22;20063;51.730;11.110;2023-06-05T15:16:15;22.80;38.50
33739;DHT22;20063;51.730;11.110;2023-06-05T15:18:40;22.90;38.80
33739;DHT22;20063;51.730;11.110;2023-06-05T15:21:06;22.90;38.60
33739;DHT22;20063;51.730;11.110;2023-06-05T15:23:31;22.90;37.90
33739;DHT22;20063;51.730;11.110;2023-06-05T15:25:57;22.90;37.10
33739;DHT22;20063;51.730;11.110;2023-06-05T15:28:22;22.90;36.70
33739;DHT22;20063;51.730;11.110;2023-06-05T15:30:48;23.00;37.50
33739;DHT22;20063;51.730;11.110;2023-06-05T15:33:14;23.00;38.00
33739;DHT22;20063;51.730;11.110;2023-06-05T15:35:41;23.00;37.10
33739;DHT22;20063;51.730;11.110;2023-06-05T15:38:09;23.00;37.00
33739;DHT22;20063;51.730;11.110;2023-06-05T15:40:36;23.00;37.80
33739;DHT22;20063;51.730;11.110;2023-06-05T15:43:09;22.90;38.60
33739;DHT22;20063;51.730;11.110;2023-06-05T15:45:37;22.90;38.80
33739;DHT22;20063;51.730;11.110;2023-06-05T15:48:03;22.80;38.60
33739;DHT22;20063;51.730;11.110;2023-06-05T15:50:29;22.70;38.20